»·PEaware :: ASA690 KSEA-KGEG

ASA690 :: KSEA-KGEG

FLIGHT INFORMATION

Flight Status: Arrived
Operator:
Alaska Airlines
More flights by this operator :: More flights under this callsign
Pilot: Kevin M. (7)
Aircraft: BOEING 737-800
(B738)
More flights by this aircraft type
Origin: KSEA Seattle-Tacoma Intl
United States
Destination: KGEG Spokane Intl
United States
More flights between these airports :: More routes between these airports
Route: +SEA6 ZADON ZELAK ZIRAN ZOOMR ZOOMR1
File this flight plan on PilotEdge
Remarks: it is weird how all the fixes begin with Z on this route
Altitude:
(Current/Filed)
27,000ft
Speed:
(Current/Filed)
459kts
Departed: 10-Jan-18 10:37 AM
Arrived: 10-Jan-18 11:19 AM
Distance/Time
Traveled:
193nm/0:42
Distance/Time
To Go:
Arrived

Flight Plot

Page will automatically refresh every two minutes.

Flight plan parsing failed; only flown route is shown


Map Options




Map Legend


Flown Route
Filed Route
Departure Airport
Arrival Airport
Navaid (VOR, NDB)
Fix

Horizontal Profiles

Position Reports

Time Latitude Longitude Heading Altitude Ground
Speed
10-Jan-18 09:35 47.444922 -122.302325 160 440ft 0kts
10-Jan-18 09:36 47.444922 -122.302325 160 440ft 0kts
10-Jan-18 09:37 47.444922 -122.302325 160 440ft 0kts
10-Jan-18 09:38 47.444922 -122.302325 160 440ft 0kts
10-Jan-18 09:39 47.444922 -122.302325 160 440ft 0kts
10-Jan-18 09:40 47.444922 -122.302325 160 441ft 0kts
10-Jan-18 09:41 47.444922 -122.302325 160 441ft 0kts
10-Jan-18 09:42 47.444922 -122.302325 160 441ft 0kts
10-Jan-18 09:43 47.444922 -122.302325 160 441ft 0kts
10-Jan-18 09:44 47.444922 -122.302325 160 441ft 0kts
10-Jan-18 09:45 47.444922 -122.302325 160 441ft 0kts
10-Jan-18 09:46 47.444922 -122.302325 160 441ft 0kts
10-Jan-18 09:47 47.444922 -122.302325 160 441ft 0kts
10-Jan-18 09:48 47.444922 -122.302325 160 441ft 0kts
10-Jan-18 09:49 47.444922 -122.302325 160 441ft 0kts
10-Jan-18 09:50 47.444922 -122.302325 160 441ft 0kts
10-Jan-18 09:51 47.444922 -122.302325 160 441ft 0kts
10-Jan-18 09:52 47.444922 -122.302325 160 441ft 0kts
10-Jan-18 09:53 47.444922 -122.302325 160 441ft 0kts
10-Jan-18 09:54 47.444922 -122.302325 160 441ft 0kts
10-Jan-18 09:55 47.444922 -122.302325 160 441ft 0kts
10-Jan-18 09:56 47.444922 -122.302325 160 441ft 0kts
10-Jan-18 09:57 47.444922 -122.302325 160 441ft 0kts
10-Jan-18 09:58 47.444922 -122.302325 160 441ft 0kts
10-Jan-18 09:59 47.444922 -122.302325 160 441ft 0kts
10-Jan-18 10:00 47.444922 -122.302325 160 441ft 0kts
10-Jan-18 10:01 47.444922 -122.302325 160 441ft 0kts
10-Jan-18 10:02 47.444922 -122.302325 160 441ft 0kts
10-Jan-18 10:03 47.444922 -122.302325 160 441ft 0kts
10-Jan-18 10:04 47.444922 -122.302325 160 441ft 0kts
10-Jan-18 10:05 47.444922 -122.302325 160 441ft 0kts
10-Jan-18 10:06 47.444922 -122.302325 160 441ft 0kts
10-Jan-18 10:07 47.444922 -122.302325 160 441ft 0kts
10-Jan-18 10:08 47.444922 -122.302325 160 441ft 0kts
10-Jan-18 10:09 47.444922 -122.302325 160 441ft 0kts
10-Jan-18 10:10 47.444922 -122.302325 160 441ft 0kts
10-Jan-18 10:11 47.444922 -122.302325 160 441ft 0kts
10-Jan-18 10:12 47.444922 -122.302325 160 441ft 0kts
10-Jan-18 10:13 47.444922 -122.302325 160 441ft 0kts
10-Jan-18 10:14 47.444922 -122.302325 160 441ft 0kts
10-Jan-18 10:15 47.444922 -122.302325 160 441ft 0kts
10-Jan-18 10:16 47.444922 -122.302325 160 441ft 0kts
10-Jan-18 10:17 47.444922 -122.302325 160 441ft 0kts
10-Jan-18 10:18 47.444922 -122.302325 160 441ft 0kts
10-Jan-18 10:19 47.444922 -122.302325 160 441ft 0kts
10-Jan-18 10:20 47.444922 -122.302325 160 441ft 0kts
10-Jan-18 10:21 47.444922 -122.302325 160 441ft 0kts
10-Jan-18 10:22 47.444922 -122.302325 160 441ft 0kts
10-Jan-18 10:23 47.444922 -122.302325 160 441ft 0kts
10-Jan-18 10:24 47.444922 -122.302325 160 441ft 0kts
10-Jan-18 10:25 47.444922 -122.302325 160 441ft 0kts
10-Jan-18 10:26 47.444922 -122.302325 160 441ft 0kts
10-Jan-18 10:27 47.444922 -122.302325 160 441ft 0kts
10-Jan-18 10:28 47.444922 -122.302325 160 441ft 0kts
10-Jan-18 10:29 47.444922 -122.302325 160 441ft 0kts
10-Jan-18 10:30 47.444922 -122.302325 160 441ft 0kts
10-Jan-18 10:31 47.444922 -122.302325 160 441ft 0kts
10-Jan-18 10:32 47.444922 -122.302325 160 441ft 0kts
10-Jan-18 10:33 47.444922 -122.302325 160 441ft 0kts
10-Jan-18 10:34 47.444922 -122.302325 160 441ft 0kts
10-Jan-18 10:35 47.445135 -122.302438 158 441ft 2kts
10-Jan-18 10:36 47.445306 -122.302808 93 441ft 2kts
10-Jan-18 10:37 47.445504 -122.302391 22 441ft 0kts
10-Jan-18 10:38 47.445504 -122.302391 22 441ft 0kts
10-Jan-18 10:39 47.447320 -122.303487 307 441ft 10kts
10-Jan-18 10:40 47.448404 -122.306152 339 441ft 10kts
10-Jan-18 10:41 47.453610 -122.306223 0 441ft 25kts
10-Jan-18 10:42 47.461576 -122.306149 0 441ft 29kts
10-Jan-18 10:43 47.458719 -122.307801 180 441ft 94kts
10-Jan-18 10:44 47.417175 -122.307619 177 2251ft 173kts
10-Jan-18 10:45 47.360673 -122.308572 184 3960ft 260kts
10-Jan-18 10:46 47.290348 -122.303921 160 7816ft 274kts
10-Jan-18 10:47 47.266846 -122.206154 53 10637ft 321kts
10-Jan-18 10:48 47.326957 -122.108979 42 12632ft 359kts
10-Jan-18 10:49 47.387588 -122.008029 59 16284ft 367kts
10-Jan-18 10:50 47.397802 -121.846368 85 17949ft 439kts
10-Jan-18 10:51 47.401662 -121.673006 84 20700ft 462kts
10-Jan-18 10:52 47.405520 -121.485291 84 23243ft 485kts
10-Jan-18 10:53 47.409280 -121.288223 84 25482ft 506kts
10-Jan-18 10:54 47.412968 -121.079680 84 26950ft 504kts
10-Jan-18 10:55 47.416268 -120.870762 85 26965ft 518kts
10-Jan-18 10:56 47.419168 -120.658916 85 26964ft 516kts
10-Jan-18 10:57 47.421620 -120.447798 85 26950ft 515kts
10-Jan-18 10:58 47.423711 -120.241016 86 26943ft 515kts
10-Jan-18 10:59 47.425511 -120.030178 86 26945ft 516kts
10-Jan-18 11:00 47.426877 -119.821378 86 26941ft 516kts
10-Jan-18 11:01 47.427836 -119.612082 86 26939ft 516kts
10-Jan-18 11:02 47.428380 -119.402307 86 26944ft 516kts
10-Jan-18 11:03 47.428633 -119.204213 86 26940ft 516kts
10-Jan-18 11:04 47.428494 -118.997409 86 25304ft 471kts
10-Jan-18 11:05 47.428076 -118.808355 87 22161ft 454kts
10-Jan-18 11:06 47.427370 -118.630055 88 18472ft 422kts
10-Jan-18 11:07 47.426487 -118.467200 88 14804ft 376kts
10-Jan-18 11:08 47.425651 -118.332661 89 12669ft 319kts
10-Jan-18 11:09 47.445119 -118.212997 70 10806ft 303kts
10-Jan-18 11:10 47.469716 -118.094527 72 9326ft 302kts
10-Jan-18 11:11 47.493722 -117.978125 72 7825ft 293kts
10-Jan-18 11:12 47.533322 -117.878855 44 6940ft 283kts
10-Jan-18 11:13 47.588842 -117.795131 43 6922ft 283kts
10-Jan-18 11:14 47.643844 -117.712973 43 5422ft 278kts
10-Jan-18 11:15 47.696255 -117.636124 43 4916ft 241kts
10-Jan-18 11:16 47.742470 -117.569542 43 4254ft 229kts
10-Jan-18 11:17 47.788336 -117.505112 43 4248ft 227kts
10-Jan-18 11:18 47.820749 -117.434079 99 4228ft 208kts
10-Jan-18 11:19 47.796611 -117.363236 163 3944ft 201kts
10-Jan-18 11:20 47.742921 -117.375921 197 3954ft 199kts
10-Jan-18 11:21 47.700204 -117.414510 232 3983ft 172kts
10-Jan-18 11:22 47.671000 -117.459329 224 3214ft 139kts
10-Jan-18 11:23 47.643317 -117.500406 223 2772ft 141kts
10-Jan-18 11:24 47.621141 -117.533455 228 2383ft 53kts
10-Jan-18 11:25 47.621759 -117.536968 345 2383ft 12kts
10-Jan-18 11:26 47.623351 -117.539260 359 2383ft 0kts
10-Jan-18 11:27 47.623351 -117.539260 359 2383ft 0kts
10-Jan-18 11:28 47.623351 -117.539260 359 2383ft 0kts
10-Jan-18 11:29 47.623351 -117.539260 359 2383ft 0kts
10-Jan-18 11:30 47.623351 -117.539260 359 2383ft 0kts
10-Jan-18 11:31 47.623351 -117.539260 359 2383ft 0kts
10-Jan-18 11:32 47.623351 -117.539260 359 2383ft 0kts
10-Jan-18 11:33 47.623351 -117.539260 359 2383ft 0kts
10-Jan-18 11:34 47.623351 -117.539260 359 2383ft 0kts
10-Jan-18 11:35 47.623351 -117.539260 359 2383ft 0kts
10-Jan-18 11:36 47.623351 -117.539260 359 2383ft 0kts
10-Jan-18 11:37 47.623351 -117.539260 359 2383ft 0kts
10-Jan-18 11:38 47.623351 -117.539260 359 2383ft 0kts
10-Jan-18 11:39 47.623351 -117.539260 359 2383ft 0kts
10-Jan-18 11:40 47.623351 -117.539260 359 2383ft 0kts

Navigation Log

Ident Type
Flight plan parsing failed, navigation log unavailable